sensor_id;sensor_type;location;lat;lon;timestamp;temperature;humidity
20102;DHT22;10210;52.284;9.892;2023-11-22T00:01:02;7.30;99.90
20102;DHT22;10210;52.284;9.892;2023-11-22T00:03:32;7.30;99.90
20102;DHT22;10210;52.284;9.892;2023-11-22T00:05:57;7.30;99.90
20102;DHT22;10210;52.284;9.892;2023-11-22T00:08:23;7.30;99.90
20102;DHT22;10210;52.284;9.892;2023-11-22T00:10:49;7.20;99.90
20102;DHT22;10210;52.284;9.892;2023-11-22T00:13:15;7.20;99.90
20102;DHT22;10210;52.284;9.892;2023-11-22T00:15:40;7.20;99.90
20102;DHT22;10210;52.284;9.892;2023-11-22T00:18:07;7.20;99.90
20102;DHT22;10210;52.284;9.892;2023-11-22T00:20:33;7.10;99.90
20102;DHT22;10210;52.284;9.892;2023-11-22T00:22:59;7.10;99.90
20102;DHT22;10210;52.284;9.892;2023-11-22T00:25:25;7.10;99.90
20102;DHT22;10210;52.284;9.892;2023-11-22T00:27:50;7.10;99.90
20102;DHT22;10210;52.284;9.892;2023-11-22T00:30:16;7.00;99.90
20102;DHT22;10210;52.284;9.892;2023-11-22T00:32:42;7.00;99.90
20102;DHT22;10210;52.284;9.892;2023-11-22T00:35:08;7.00;99.90
20102;DHT22;10210;52.284;9.892;2023-11-22T00:37:34;6.90;99.90
20102;DHT22;10210;52.284;9.892;2023-11-22T00:40:00;6.90;99.90
20102;DHT22;10210;52.284;9.892;2023-11-22T00:42:31;6.90;99.90
20102;DHT22;10210;52.284;9.892;2023-11-22T00:44:57;6.90;99.90
20102;DHT22;10210;52.284;9.892;2023-11-22T00:47:23;6.90;99.90
20102;DHT22;10210;52.284;9.892;2023-11-22T00:49:48;6.80;99.90
20102;DHT22;10210;52.284;9.892;2023-11-22T00:52:14;6.80;99.90
20102;DHT22;10210;52.284;9.892;2023-11-22T00:54:39;6.80;99.90
20102;DHT22;10210;52.284;9.892;2023-11-22T00:57:06;6.80;99.90
20102;DHT22;10210;52.284;9.892;2023-11-22T00:59:32;6.80;99.90
20102;DHT22;10210;52.284;9.892;2023-11-22T01:01:58;6.70;99.90
20102;DHT22;10210;52.284;9.892;2023-11-22T01:04:24;6.70;99.90
20102;DHT22;10210;52.284;9.892;2023-11-22T01:06:49;6.70;99.90
20102;DHT22;10210;52.284;9.892;2023-11-22T01:09:15;6.70;99.90
20102;DHT22;10210;52.284;9.892;2023-11-22T01:11:41;6.70;99.90
20102;DHT22;10210;52.284;9.892;2023-11-22T01:14:09;6.70;99.90
20102;DHT22;10210;52.284;9.892;2023-11-22T01:16:34;6.70;99.90
20102;DHT22;10210;52.284;9.892;2023-11-22T01:19:02;6.70;99.90
20102;DHT22;10210;52.284;9.892;2023-11-22T01:21:29;6.70;99.90
20102;DHT22;10210;52.284;9.892;2023-11-22T01:23:54;6.60;99.90
20102;DHT22;10210;52.284;9.892;2023-11-22T01:26:20;6.60;99.90
20102;DHT22;10210;52.284;9.892;2023-11-22T01:28:46;6.60;99.90
20102;DHT22;10210;52.284;9.892;2023-11-22T01:31:12;6.60;99.90
20102;DHT22;10210;52.284;9.892;2023-11-22T01:33:38;6.60;99.90
20102;DHT22;10210;52.284;9.892;2023-11-22T01:36:04;6.60;99.90
20102;DHT22;10210;52.284;9.892;2023-11-22T01:38:30;6.60;99.90
20102;DHT22;10210;52.284;9.892;2023-11-22T01:40:56;6.60;99.90
20102;DHT22;10210;52.284;9.892;2023-11-22T01:43:22;6.50;99.90
20102;DHT22;10210;52.284;9.892;2023-11-22T01:45:49;6.50;99.90
20102;DHT22;10210;52.284;9.892;2023-11-22T01:48:15;6.50;99.90
20102;DHT22;10210;52.284;9.892;2023-11-22T01:50:42;6.50;99.90
20102;DHT22;10210;52.284;9.892;2023-11-22T01:53:10;6.50;99.90
20102;DHT22;10210;52.284;9.892;2023-11-22T01:55:38;6.50;99.90
20102;DHT22;10210;52.284;9.892;2023-11-22T01:58:05;6.40;99.90
20102;DHT22;10210;52.284;9.892;2023-11-22T02:00:35;6.40;99.90
20102;DHT22;10210;52.284;9.892;2023-11-22T02:03:07;6.40;99.90
20102;DHT22;10210;52.284;9.892;2023-11-22T02:05:32;6.40;99.90
20102;DHT22;10210;52.284;9.892;2023-11-22T02:07:59;6.30;99.90
20102;DHT22;10210;52.284;9.892;2023-11-22T02:10:25;6.30;99.90
20102;DHT22;10210;52.284;9.892;2023-11-22T02:12:51;6.30;99.90
20102;DHT22;10210;52.284;9.892;2023-11-22T02:15:16;6.20;99.90
20102;DHT22;10210;52.284;9.892;2023-11-22T02:17:42;6.20;99.90
20102;DHT22;10210;52.284;9.892;2023-11-22T02:20:10;6.20;99.90
20102;DHT22;10210;52.284;9.892;2023-11-22T02:22:47;6.10;99.90
20102;DHT22;10210;52.284;9.892;2023-11-22T02:25:13;6.10;99.90
20102;DHT22;10210;52.284;9.892;2023-11-22T02:27:40;6.10;99.90
20102;DHT22;10210;52.284;9.892;2023-11-22T02:30:08;6.10;99.90
20102;DHT22;10210;52.284;9.892;2023-11-22T02:32:34;6.00;99.90
20102;DHT22;10210;52.284;9.892;2023-11-22T02:35:00;6.00;99.90
20102;DHT22;10210;52.284;9.892;2023-11-22T02:37:26;6.00;99.90
20102;DHT22;10210;52.284;9.892;2023-11-22T02:40:17;6.00;99.90
20102;DHT22;10210;52.284;9.892;2023-11-22T02:42:48;5.90;99.90
20102;DHT22;10210;52.284;9.892;2023-11-22T02:45:19;5.90;99.90
20102;DHT22;10210;52.284;9.892;2023-11-22T02:47:49;5.90;99.90
20102;DHT22;10210;52.284;9.892;2023-11-22T02:50:16;5.90;99.90
20102;DHT22;10210;52.284;9.892;2023-11-22T02:52:42;5.90;99.90
20102;DHT22;10210;52.284;9.892;2023-11-22T02:55:09;5.90;99.90
20102;DHT22;10210;52.284;9.892;2023-11-22T02:57:38;5.80;99.90
20102;DHT22;10210;52.284;9.892;2023-11-22T03:00:08;5.80;99.90
20102;DHT22;10210;52.284;9.892;2023-11-22T03:02:35;5.80;99.90
20102;DHT22;10210;52.284;9.892;2023-11-22T03:05:01;5.80;99.90
20102;DHT22;10210;52.284;9.892;2023-11-22T03:07:27;5.80;99.90
20102;DHT22;10210;52.284;9.892;2023-11-22T03:09:53;5.70;99.90
20102;DHT22;10210;52.284;9.892;2023-11-22T03:12:19;5.70;99.90
20102;DHT22;10210;52.284;9.892;2023-11-22T03:15:03;5.70;99.90
20102;DHT22;10210;52.284;9.892;2023-11-22T03:17:29;5.70;99.90
20102;DHT22;10210;52.284;9.892;2023-11-22T03:19:56;5.70;99.90
20102;DHT22;10210;52.284;9.892;2023-11-22T03:22:26;5.60;99.90
20102;DHT22;10210;52.284;9.892;2023-11-22T03:24:56;5.60;99.90
20102;DHT22;10210;52.284;9.892;2023-11-22T03:27:23;5.70;99.90
20102;DHT22;10210;52.284;9.892;2023-11-22T03:29:49;5.60;99.90
20102;DHT22;10210;52.284;9.892;2023-11-22T03:32:15;5.60;99.90
20102;DHT22;10210;52.284;9.892;2023-11-22T03:34:41;5.60;99.90
20102;DHT22;10210;52.284;9.892;2023-11-22T03:37:06;5.60;99.90
20102;DHT22;10210;52.284;9.892;2023-11-22T03:39:32;5.60;99.90
20102;DHT22;10210;52.284;9.892;2023-11-22T03:41:58;5.60;99.90
20102;DHT22;10210;52.284;9.892;2023-11-22T03:44:24;5.60;99.90
20102;DHT22;10210;52.284;9.892;2023-11-22T03:46:49;5.60;99.90
20102;DHT22;10210;52.284;9.892;2023-11-22T03:49:15;5.60;99.90
20102;DHT22;10210;52.284;9.892;2023-11-22T03:51:42;5.50;99.90
20102;DHT22;10210;52.284;9.892;2023-11-22T03:54:08;5.50;99.90
20102;DHT22;10210;52.284;9.892;2023-11-22T03:56:36;5.50;99.90
20102;DHT22;10210;52.284;9.892;2023-11-22T03:59:02;5.50;99.90
20102;DHT22;10210;52.284;9.892;2023-11-22T04:01:29;5.50;99.90
20102;DHT22;10210;52.284;9.892;2023-11-22T04:03:54;5.50;99.90
20102;DHT22;10210;52.284;9.892;2023-11-22T04:06:20;5.50;99.90
20102;DHT22;10210;52.284;9.892;2023-11-22T04:08:46;5.50;99.90
20102;DHT22;10210;52.284;9.892;2023-11-22T04:11:13;5.50;99.90
20102;DHT22;10210;52.284;9.892;2023-11-22T04:13:39;5.50;99.90
20102;DHT22;10210;52.284;9.892;2023-11-22T04:16:06;5.40;99.90
20102;DHT22;10210;52.284;9.892;2023-11-22T04:18:34;5.40;99.90
20102;DHT22;10210;52.284;9.892;2023-11-22T04:21:03;5.40;99.90
20102;DHT22;10210;52.284;9.892;2023-11-22T04:23:31;5.40;99.90
20102;DHT22;10210;52.284;9.892;2023-11-22T04:25:58;5.40;99.90
20102;DHT22;10210;52.284;9.892;2023-11-22T04:28:24;5.40;99.90
20102;DHT22;10210;52.284;9.892;2023-11-22T04:30:51;5.40;99.90
20102;DHT22;10210;52.284;9.892;2023-11-22T04:33:18;5.40;99.90
20102;DHT22;10210;52.284;9.892;2023-11-22T04:35:44;5.40;99.90
20102;DHT22;10210;52.284;9.892;2023-11-22T04:38:10;5.40;99.90
20102;DHT22;10210;52.284;9.892;2023-11-22T04:40:36;5.40;99.90
20102;DHT22;10210;52.284;9.892;2023-11-22T04:43:03;5.30;99.90
20102;DHT22;10210;52.284;9.892;2023-11-22T04:45:29;5.30;99.90
20102;DHT22;10210;52.284;9.892;2023-11-22T04:47:54;5.30;99.90
20102;DHT22;10210;52.284;9.892;2023-11-22T04:50:22;5.30;99.90
20102;DHT22;10210;52.284;9.892;2023-11-22T04:52:49;5.30;99.90
20102;DHT22;10210;52.284;9.892;2023-11-22T04:55:15;5.30;99.90
20102;DHT22;10210;52.284;9.892;2023-11-22T04:57:41;5.30;99.90
20102;DHT22;10210;52.284;9.892;2023-11-22T05:00:08;5.30;99.90
20102;DHT22;10210;52.284;9.892;2023-11-22T05:02:34;5.20;99.90
20102;DHT22;10210;52.284;9.892;2023-11-22T05:05:00;5.20;99.90
20102;DHT22;10210;52.284;9.892;2023-11-22T05:07:26;5.20;99.90
20102;DHT22;10210;52.284;9.892;2023-11-22T05:09:52;5.20;99.90
20102;DHT22;10210;52.284;9.892;2023-11-22T05:12:17;5.20;99.90
20102;DHT22;10210;52.284;9.892;2023-11-22T05:14:43;5.20;99.90
20102;DHT22;10210;52.284;9.892;2023-11-22T05:17:10;5.20;99.90
20102;DHT22;10210;52.284;9.892;2023-11-22T05:19:37;5.10;99.90
20102;DHT22;10210;52.284;9.892;2023-11-22T05:22:04;5.10;99.90
20102;DHT22;10210;52.284;9.892;2023-11-22T05:24:30;5.10;99.90
20102;DHT22;10210;52.284;9.892;2023-11-22T05:26:56;5.10;99.90
20102;DHT22;10210;52.284;9.892;2023-11-22T05:29:22;5.10;99.90
20102;DHT22;10210;52.284;9.892;2023-11-22T05:31:48;5.10;99.90
20102;DHT22;10210;52.284;9.892;2023-11-22T05:34:13;5.10;99.90
20102;DHT22;10210;52.284;9.892;2023-11-22T05:36:39;5.10;99.90
20102;DHT22;10210;52.284;9.892;2023-11-22T05:39:06;5.10;99.90
20102;DHT22;10210;52.284;9.892;2023-11-22T05:41:31;5.10;99.90
20102;DHT22;10210;52.284;9.892;2023-11-22T05:43:57;5.00;99.90
20102;DHT22;10210;52.284;9.892;2023-11-22T05:46:23;5.00;99.90
20102;DHT22;10210;52.284;9.892;2023-11-22T05:48:53;5.00;99.90
20102;DHT22;10210;52.284;9.892;2023-11-22T05:51:20;5.00;99.90
20102;DHT22;10210;52.284;9.892;2023-11-22T05:53:46;5.00;99.90
20102;DHT22;10210;52.284;9.892;2023-11-22T05:56:13;5.00;99.90
20102;DHT22;10210;52.284;9.892;2023-11-22T05:58:40;5.00;99.90
20102;DHT22;10210;52.284;9.892;2023-11-22T06:01:06;5.00;99.90
20102;DHT22;10210;52.284;9.892;2023-11-22T06:03:33;5.00;99.90
20102;DHT22;10210;52.284;9.892;2023-11-22T06:06:00;4.90;99.90
20102;DHT22;10210;52.284;9.892;2023-11-22T06:08:26;4.90;99.90
20102;DHT22;10210;52.284;9.892;2023-11-22T06:10:51;4.90;99.90
20102;DHT22;10210;52.284;9.892;2023-11-22T06:13:18;4.90;99.90
20102;DHT22;10210;52.284;9.892;2023-11-22T06:15:45;4.90;99.90
20102;DHT22;10210;52.284;9.892;2023-11-22T06:18:11;4.80;99.90
20102;DHT22;10210;52.284;9.892;2023-11-22T06:20:39;4.90;99.90
20102;DHT22;10210;52.284;9.892;2023-11-22T06:23:05;4.90;99.90
20102;DHT22;10210;52.284;9.892;2023-11-22T06:25:31;4.80;99.90
20102;DHT22;10210;52.284;9.892;2023-11-22T06:27:56;4.80;99.90
20102;DHT22;10210;52.284;9.892;2023-11-22T06:30:22;4.80;99.90
20102;DHT22;10210;52.284;9.892;2023-11-22T06:32:48;4.80;99.90
20102;DHT22;10210;52.284;9.892;2023-11-22T06:35:14;4.80;99.90
20102;DHT22;10210;52.284;9.892;2023-11-22T06:37:40;4.80;99.90
20102;DHT22;10210;52.284;9.892;2023-11-22T06:40:07;4.80;99.90
20102;DHT22;10210;52.284;9.892;2023-11-22T06:42:38;4.80;99.90
20102;DHT22;10210;52.284;9.892;2023-11-22T06:45:07;4.70;99.90
20102;DHT22;10210;52.284;9.892;2023-11-22T06:47:36;4.70;99.90
20102;DHT22;10210;52.284;9.892;2023-11-22T06:50:03;4.70;99.90
20102;DHT22;10210;52.284;9.892;2023-11-22T06:52:41;4.70;99.90
20102;DHT22;10210;52.284;9.892;2023-11-22T06:55:08;4.70;99.90
20102;DHT22;10210;52.284;9.892;2023-11-22T06:57:35;4.70;99.90
20102;DHT22;10210;52.284;9.892;2023-11-22T07:00:03;4.70;99.90
20102;DHT22;10210;52.284;9.892;2023-11-22T07:02:33;4.70;99.90
20102;DHT22;10210;52.284;9.892;2023-11-22T07:05:03;4.70;99.90
20102;DHT22;10210;52.284;9.892;2023-11-22T07:07:33;4.70;99.90
20102;DHT22;10210;52.284;9.892;2023-11-22T07:09:59;4.70;99.90
20102;DHT22;10210;52.284;9.892;2023-11-22T07:12:25;4.70;99.90
20102;DHT22;10210;52.284;9.892;2023-11-22T07:14:52;4.70;99.90
20102;DHT22;10210;52.284;9.892;2023-11-22T07:17:18;4.70;99.90
20102;DHT22;10210;52.284;9.892;2023-11-22T07:19:44;4.70;99.90
20102;DHT22;10210;52.284;9.892;2023-11-22T07:22:15;4.70;99.90
20102;DHT22;10210;52.284;9.892;2023-11-22T07:24:45;4.70;99.90
20102;DHT22;10210;52.284;9.892;2023-11-22T07:27:12;4.80;99.90
20102;DHT22;10210;52.284;9.892;2023-11-22T07:29:41;4.80;99.90
20102;DHT22;10210;52.284;9.892;2023-11-22T07:32:08;4.70;99.90
20102;DHT22;10210;52.284;9.892;2023-11-22T07:34:37;4.80;99.90
20102;DHT22;10210;52.284;9.892;2023-11-22T07:37:05;4.80;99.90
20102;DHT22;10210;52.284;9.892;2023-11-22T07:39:35;4.80;99.90
20102;DHT22;10210;52.284;9.892;2023-11-22T07:42:05;4.90;99.90
20102;DHT22;10210;52.284;9.892;2023-11-22T07:44:34;4.80;99.90
20102;DHT22;10210;52.284;9.892;2023-11-22T07:47:04;4.90;99.90
20102;DHT22;10210;52.284;9.892;2023-11-22T07:49:34;4.90;99.90
20102;DHT22;10210;52.284;9.892;2023-11-22T07:52:04;4.90;99.90
20102;DHT22;10210;52.284;9.892;2023-11-22T07:54:31;4.90;99.90
20102;DHT22;10210;52.284;9.892;2023-11-22T07:56:56;4.90;99.90
20102;DHT22;10210;52.284;9.892;2023-11-22T07:59:23;4.90;99.90
20102;DHT22;10210;52.284;9.892;2023-11-22T08:01:48;5.00;99.90
20102;DHT22;10210;52.284;9.892;2023-11-22T08:04:15;5.00;99.90
20102;DHT22;10210;52.284;9.892;2023-11-22T08:06:43;5.00;99.90
20102;DHT22;10210;52.284;9.892;2023-11-22T08:09:09;5.10;99.90
20102;DHT22;10210;52.284;9.892;2023-11-22T08:11:36;5.10;99.90
20102;DHT22;10210;52.284;9.892;2023-11-22T08:14:04;5.20;99.90
20102;DHT22;10210;52.284;9.892;2023-11-22T08:16:31;5.20;99.90
20102;DHT22;10210;52.284;9.892;2023-11-22T08:18:57;5.20;99.90
20102;DHT22;10210;52.284;9.892;2023-11-22T08:21:23;5.20;99.90
20102;DHT22;10210;52.284;9.892;2023-11-22T08:23:50;5.20;99.90
20102;DHT22;10210;52.284;9.892;2023-11-22T08:26:16;5.30;99.90
20102;DHT22;10210;52.284;9.892;2023-11-22T08:28:42;5.20;99.90
20102;DHT22;10210;52.284;9.892;2023-11-22T08:31:08;5.20;99.90
20102;DHT22;10210;52.284;9.892;2023-11-22T08:33:35;5.20;99.90
20102;DHT22;10210;52.284;9.892;2023-11-22T08:36:02;5.20;99.90
20102;DHT22;10210;52.284;9.892;2023-11-22T08:38:30;5.20;99.90
20102;DHT22;10210;52.284;9.892;2023-11-22T08:41:05;5.20;99.90
20102;DHT22;10210;52.284;9.892;2023-11-22T08:43:32;5.30;99.90
20102;DHT22;10210;52.284;9.892;2023-11-22T08:46:01;5.30;99.90
20102;DHT22;10210;52.284;9.892;2023-11-22T08:48:30;5.30;99.90
20102;DHT22;10210;52.284;9.892;2023-11-22T08:50:56;5.30;99.90
20102;DHT22;10210;52.284;9.892;2023-11-22T08:53:22;5.30;99.90
20102;DHT22;10210;52.284;9.892;2023-11-22T08:55:48;5.40;99.90
20102;DHT22;10210;52.284;9.892;2023-11-22T08:58:14;5.40;99.90
20102;DHT22;10210;52.284;9.892;2023-11-22T09:00:40;5.40;99.90
20102;DHT22;10210;52.284;9.892;2023-11-22T09:03:10;5.40;99.90
20102;DHT22;10210;52.284;9.892;2023-11-22T09:05:39;5.50;99.90
20102;DHT22;10210;52.284;9.892;2023-11-22T09:08:05;5.50;99.90
20102;DHT22;10210;52.284;9.892;2023-11-22T09:10:31;5.50;99.90
20102;DHT22;10210;52.284;9.892;2023-11-22T09:12:57;5.60;99.90
20102;DHT22;10210;52.284;9.892;2023-11-22T09:15:25;5.60;99.90
20102;DHT22;10210;52.284;9.892;2023-11-22T09:17:55;5.70;99.90
20102;DHT22;10210;52.284;9.892;2023-11-22T09:20:21;5.70;99.90
20102;DHT22;10210;52.284;9.892;2023-11-22T09:22:51;5.80;99.90
20102;DHT22;10210;52.284;9.892;2023-11-22T09:25:21;5.80;99.90
20102;DHT22;10210;52.284;9.892;2023-11-22T09:27:53;5.80;99.90
20102;DHT22;10210;52.284;9.892;2023-11-22T09:30:28;5.90;99.90
20102;DHT22;10210;52.284;9.892;2023-11-22T09:33:09;5.90;99.90
20102;DHT22;10210;52.284;9.892;2023-11-22T09:35:37;5.90;99.90
20102;DHT22;10210;52.284;9.892;2023-11-22T09:38:05;6.00;99.90
20102;DHT22;10210;52.284;9.892;2023-11-22T09:40:47;6.00;99.90
20102;DHT22;10210;52.284;9.892;2023-11-22T09:43:15;6.00;99.90
20102;DHT22;10210;52.284;9.892;2023-11-22T09:45:48;6.00;99.90
20102;DHT22;10210;52.284;9.892;2023-11-22T09:48:18;6.00;99.90
20102;DHT22;10210;52.284;9.892;2023-11-22T09:51:04;6.00;99.90
20102;DHT22;10210;52.284;9.892;2023-11-22T09:53:34;6.00;99.90
20102;DHT22;10210;52.284;9.892;2023-11-22T09:56:07;6.00;99.90
20102;DHT22;10210;52.284;9.892;2023-11-22T09:58:37;6.00;99.90
20102;DHT22;10210;52.284;9.892;2023-11-22T10:01:05;6.00;99.90
20102;DHT22;10210;52.284;9.892;2023-11-22T10:03:33;6.00;99.90
20102;DHT22;10210;52.284;9.892;2023-11-22T10:05:59;6.00;99.90
20102;DHT22;10210;52.284;9.892;2023-11-22T10:08:26;6.00;99.90
20102;DHT22;10210;52.284;9.892;2023-11-22T10:10:53;6.00;99.90
20102;DHT22;10210;52.284;9.892;2023-11-22T10:13:20;6.10;99.90
20102;DHT22;10210;52.284;9.892;2023-11-22T10:15:53;6.00;99.90
20102;DHT22;10210;52.284;9.892;2023-11-22T10:18:20;6.10;99.90
20102;DHT22;10210;52.284;9.892;2023-11-22T10:20:48;6.10;99.90
20102;DHT22;10210;52.284;9.892;2023-11-22T10:23:17;6.20;99.90
20102;DHT22;10210;52.284;9.892;2023-11-22T10:25:53;6.20;99.90
20102;DHT22;10210;52.284;9.892;2023-11-22T10:28:22;6.20;99.90
20102;DHT22;10210;52.284;9.892;2023-11-22T10:30:53;6.30;99.90
20102;DHT22;10210;52.284;9.892;2023-11-22T10:33:19;6.30;99.90
20102;DHT22;10210;52.284;9.892;2023-11-22T10:35:49;6.40;99.90
20102;DHT22;10210;52.284;9.892;2023-11-22T10:38:20;6.40;99.90
20102;DHT22;10210;52.284;9.892;2023-11-22T10:40:47;6.50;99.90
20102;DHT22;10210;52.284;9.892;2023-11-22T10:43:14;6.50;99.90
20102;DHT22;10210;52.284;9.892;2023-11-22T10:45:42;6.50;99.90
20102;DHT22;10210;52.284;9.892;2023-11-22T10:48:14;6.50;99.90
20102;DHT22;10210;52.284;9.892;2023-11-22T10:50:44;6.60;99.90
20102;DHT22;10210;52.284;9.892;2023-11-22T10:53:15;6.50;99.90
20102;DHT22;10210;52.284;9.892;2023-11-22T10:55:46;6.60;99.90
20102;DHT22;10210;52.284;9.892;2023-11-22T10:58:14;6.60;99.90
20102;DHT22;10210;52.284;9.892;2023-11-22T11:00:42;6.50;99.90
20102;DHT22;10210;52.284;9.892;2023-11-22T11:03:18;6.60;99.90
20102;DHT22;10210;52.284;9.892;2023-11-22T11:05:54;6.50;99.90
20102;DHT22;10210;52.284;9.892;2023-11-22T11:08:26;6.50;99.90
20102;DHT22;10210;52.284;9.892;2023-11-22T11:10:53;6.50;99.90
20102;DHT22;10210;52.284;9.892;2023-11-22T11:13:22;6.50;99.90
20102;DHT22;10210;52.284;9.892;2023-11-22T11:15:49;6.50;99.90
20102;DHT22;10210;52.284;9.892;2023-11-22T11:18:17;6.40;99.90
20102;DHT22;10210;52.284;9.892;2023-11-22T11:20:57;6.40;99.90
20102;DHT22;10210;52.284;9.892;2023-11-22T11:23:28;6.50;99.90
20102;DHT22;10210;52.284;9.892;2023-11-22T11:28:25;6.50;99.90
20102;DHT22;10210;52.284;9.892;2023-11-22T11:30:53;6.50;99.90
20102;DHT22;10210;52.284;9.892;2023-11-22T11:33:36;6.50;99.90
20102;DHT22;10210;52.284;9.892;2023-11-22T11:36:41;6.50;99.90
20102;DHT22;10210;52.284;9.892;2023-11-22T11:39:07;6.50;99.90
20102;DHT22;10210;52.284;9.892;2023-11-22T11:41:41;6.50;99.90
20102;DHT22;10210;52.284;9.892;2023-11-22T11:44:08;6.50;99.90
20102;DHT22;10210;52.284;9.892;2023-11-22T11:46:34;6.60;99.90
20102;DHT22;10210;52.284;9.892;2023-11-22T11:49:06;6.50;99.90
20102;DHT22;10210;52.284;9.892;2023-11-22T11:51:33;6.60;99.90
20102;DHT22;10210;52.284;9.892;2023-11-22T11:54:00;6.60;99.90
20102;DHT22;10210;52.284;9.892;2023-11-22T11:56:26;6.60;99.90
20102;DHT22;10210;52.284;9.892;2023-11-22T11:58:56;6.70;99.90
20102;DHT22;10210;52.284;9.892;2023-11-22T12:01:24;6.70;99.90
20102;DHT22;10210;52.284;9.892;2023-11-22T12:03:53;6.70;99.90
20102;DHT22;10210;52.284;9.892;2023-11-22T12:06:19;6.70;99.90
20102;DHT22;10210;52.284;9.892;2023-11-22T12:08:45;6.80;99.90
20102;DHT22;10210;52.284;9.892;2023-11-22T12:11:13;6.80;99.90
20102;DHT22;10210;52.284;9.892;2023-11-22T12:13:41;6.80;99.90
20102;DHT22;10210;52.284;9.892;2023-11-22T12:16:18;6.80;99.90
20102;DHT22;10210;52.284;9.892;2023-11-22T12:18:45;6.90;99.90
20102;DHT22;10210;52.284;9.892;2023-11-22T12:21:16;6.80;99.90
20102;DHT22;10210;52.284;9.892;2023-11-22T12:23:44;6.80;99.90
20102;DHT22;10210;52.284;9.892;2023-11-22T12:26:14;6.80;99.90
20102;DHT22;10210;52.284;9.892;2023-11-22T12:28:41;6.80;99.90
20102;DHT22;10210;52.284;9.892;2023-11-22T12:31:12;6.90;99.90
20102;DHT22;10210;52.284;9.892;2023-11-22T12:33:40;6.90;99.90
20102;DHT22;10210;52.284;9.892;2023-11-22T12:36:09;6.90;99.90
20102;DHT22;10210;52.284;9.892;2023-11-22T12:38:38;6.90;99.90
20102;DHT22;10210;52.284;9.892;2023-11-22T12:41:05;6.90;99.90
20102;DHT22;10210;52.284;9.892;2023-11-22T12:43:32;6.90;99.90
20102;DHT22;10210;52.284;9.892;2023-11-22T12:46:04;6.90;99.90
20102;DHT22;10210;52.284;9.892;2023-11-22T12:48:39;6.90;99.90
20102;DHT22;10210;52.284;9.892;2023-11-22T12:51:15;6.90;99.90
20102;DHT22;10210;52.284;9.892;2023-11-22T12:53:45;7.00;99.90
20102;DHT22;10210;52.284;9.892;2023-11-22T12:56:11;6.90;99.90
20102;DHT22;10210;52.284;9.892;2023-11-22T12:58:37;6.90;99.90
20102;DHT22;10210;52.284;9.892;2023-11-22T13:01:04;6.90;99.90
20102;DHT22;10210;52.284;9.892;2023-11-22T13:03:30;6.90;99.90
20102;DHT22;10210;52.284;9.892;2023-11-22T13:05:57;6.90;99.90
20102;DHT22;10210;52.284;9.892;2023-11-22T13:08:23;6.90;99.90
20102;DHT22;10210;52.284;9.892;2023-11-22T13:10:55;6.90;99.90
20102;DHT22;10210;52.284;9.892;2023-11-22T13:13:22;6.90;99.90
20102;DHT22;10210;52.284;9.892;2023-11-22T13:15:49;6.80;99.90
20102;DHT22;10210;52.284;9.892;2023-11-22T13:18:16;6.80;99.90
20102;DHT22;10210;52.284;9.892;2023-11-22T13:20:43;6.80;99.90
20102;DHT22;10210;52.284;9.892;2023-11-22T13:23:09;6.80;99.90
20102;DHT22;10210;52.284;9.892;2023-11-22T13:25:35;6.70;99.90
20102;DHT22;10210;52.284;9.892;2023-11-22T13:28:02;6.70;99.90
20102;DHT22;10210;52.284;9.892;2023-11-22T13:30:31;6.70;99.90
20102;DHT22;10210;52.284;9.892;2023-11-22T13:32:57;6.80;99.90
20102;DHT22;10210;52.284;9.892;2023-11-22T13:35:28;6.70;99.90
20102;DHT22;10210;52.284;9.892;2023-11-22T13:37:58;6.70;99.90
20102;DHT22;10210;52.284;9.892;2023-11-22T13:40:25;6.70;99.90
20102;DHT22;10210;52.284;9.892;2023-11-22T13:42:55;6.60;99.90
20102;DHT22;10210;52.284;9.892;2023-11-22T13:45:21;6.50;99.90
20102;DHT22;10210;52.284;9.892;2023-11-22T13:47:54;6.50;99.90
20102;DHT22;10210;52.284;9.892;2023-11-22T13:50:26;6.50;99.90
20102;DHT22;10210;52.284;9.892;2023-11-22T13:52:55;6.50;99.90
20102;DHT22;10210;52.284;9.892;2023-11-22T13:55:22;6.50;99.90
20102;DHT22;10210;52.284;9.892;2023-11-22T13:57:50;6.50;99.90
20102;DHT22;10210;52.284;9.892;2023-11-22T14:00:21;6.50;99.90
20102;DHT22;10210;52.284;9.892;2023-11-22T14:02:49;6.50;99.90
20102;DHT22;10210;52.284;9.892;2023-11-22T14:05:17;6.50;99.90
20102;DHT22;10210;52.284;9.892;2023-11-22T14:07:43;6.40;99.90
20102;DHT22;10210;52.284;9.892;2023-11-22T14:10:11;6.40;99.90
20102;DHT22;10210;52.284;9.892;2023-11-22T14:12:41;6.40;99.90
20102;DHT22;10210;52.284;9.892;2023-11-22T14:15:13;6.50;99.90
20102;DHT22;10210;52.284;9.892;2023-11-22T14:17:40;6.40;99.90
20102;DHT22;10210;52.284;9.892;2023-11-22T14:22:35;6.40;99.90
20102;DHT22;10210;52.284;9.892;2023-11-22T14:25:01;6.40;99.90
20102;DHT22;10210;52.284;9.892;2023-11-22T14:27:28;6.40;99.90
20102;DHT22;10210;52.284;9.892;2023-11-22T14:29:56;6.40;99.90
20102;DHT22;10210;52.284;9.892;2023-11-22T14:32:22;6.40;99.90
20102;DHT22;10210;52.284;9.892;2023-11-22T14:34:48;6.30;99.90
20102;DHT22;10210;52.284;9.892;2023-11-22T14:37:14;6.30;99.90
20102;DHT22;10210;52.284;9.892;2023-11-22T14:39:40;6.30;99.90
20102;DHT22;10210;52.284;9.892;2023-11-22T14:42:06;6.30;99.90
20102;DHT22;10210;52.284;9.892;2023-11-22T14:44:34;6.40;99.90
20102;DHT22;10210;52.284;9.892;2023-11-22T14:47:01;6.30;99.90
20102;DHT22;10210;52.284;9.892;2023-11-22T14:49:32;6.30;99.90
20102;DHT22;10210;52.284;9.892;2023-11-22T14:51:59;6.30;99.90
20102;DHT22;10210;52.284;9.892;2023-11-22T14:54:26;6.30;99.90
20102;DHT22;10210;52.284;9.892;2023-11-22T14:56:52;6.30;99.90
20102;DHT22;10210;52.284;9.892;2023-11-22T14:59:20;6.30;99.90
20102;DHT22;10210;52.284;9.892;2023-11-22T15:01:46;6.30;99.90
20102;DHT22;10210;52.284;9.892;2023-11-22T15:04:12;6.30;99.90
20102;DHT22;10210;52.284;9.892;2023-11-22T15:06:38;6.30;99.90
20102;DHT22;10210;52.284;9.892;2023-11-22T15:09:04;6.30;99.90
20102;DHT22;10210;52.284;9.892;2023-11-22T15:11:36;6.30;99.90
20102;DHT22;10210;52.284;9.892;2023-11-22T15:14:04;6.30;99.90
20102;DHT22;10210;52.284;9.892;2023-11-22T15:16:30;6.30;99.90
20102;DHT22;10210;52.284;9.892;2023-11-22T15:18:57;6.30;99.90
20102;DHT22;10210;52.284;9.892;2023-11-22T15:21:25;6.30;99.90
20102;DHT22;10210;52.284;9.892;2023-11-22T15:23:51;6.30;99.90
20102;DHT22;10210;52.284;9.892;2023-11-22T15:26:17;6.30;99.90
20102;DHT22;10210;52.284;9.892;2023-11-22T15:28:43;6.30;99.90
20102;DHT22;10210;52.284;9.892;2023-11-22T15:31:14;6.30;99.90
20102;DHT22;10210;52.284;9.892;2023-11-22T15:33:44;6.30;99.90
20102;DHT22;10210;52.284;9.892;2023-11-22T15:36:10;6.30;99.90
20102;DHT22;10210;52.284;9.892;2023-11-22T15:38:36;6.30;99.90
20102;DHT22;10210;52.284;9.892;2023-11-22T15:41:03;6.30;99.90
20102;DHT22;10210;52.284;9.892;2023-11-22T15:43:29;6.30;99.90
20102;DHT22;10210;52.284;9.892;2023-11-22T15:45:55;6.30;99.90
20102;DHT22;10210;52.284;9.892;2023-11-22T15:48:21;6.30;99.90
20102;DHT22;10210;52.284;9.892;2023-11-22T15:50:48;6.30;99.90
20102;DHT22;10210;52.284;9.892;2023-11-22T15:53:15;6.30;99.90